Hovedside
METAR-TAF:

METAR-TAF

Lufthavner :

Ouagadougou lufthavn

Ouagadougou, Burkina Faso

breddegrad: 12-21N, lengdegrad: 001-31W, høyde over havet: 316 m

Gjeldene værobservasjon

Denne rapporten ble laget for 53 minutter siden, klokken 13:00 UTC
Vind 10 kt fra Sør-sørvest
Temperatur 30°C
Luftfuktighet 75%
Trykk 1014 hPa
Sikt 10 km eller mer
Brutte skyer i en høyde av 2000 ft

METAR: DFFD 181300Z 21010KT 9999 BKN020 30/25 Q1014 NOSIG

Tid: 13:53 (13:53 UTC)

Varsel

Denne rapporten ble laget for 2 timer og 53 minutter siden, klokken 11:00 UTC
Varsel gyldig fra 18. klokken 12 UTC til 19. klokken 18 UTC
Vind 8 kt fra Sør-sørvest
Sikt 10 km eller mer
Spredte skyer i en høyde av 2000 ft
Sannsynlighet 40% :
Midlertidig
fra 18. klokken 16 UTC til 18. klokken 22 UTC
Sikt: 4000 m
Spredte skyer i en høyde av 2000 ft
Få skyer i en høyde av 3300 ft, Bygeskyer.
torden, regnbyger,

TAF: DFFD 181100Z 1812/1918 20008KT 9999 SCT020 PROB40 TEMPO 1816/1822 4000 TS SHRA SCT020 FEW033CB

Værobservasjoner og værvarsel for over 4000 flyplasser (METAR- og TAF-rapporter).

Tilgjengelige stasjoner er representert av de røde og gule prikkene på kartet.

Hold musepekeren over prikken for å se navnet på stasjonen.

Klikk så for å se værobservasjoner og -varsler.

For å forandre kartet kan du klikke på den grønne knappen med svart kryss for å zoome inn, på den grønne knappen med strek for å zoome ut, eller på de grønne pilene for å se tilstøtende kart.


METAR-TAF: